sensor_id;sensor_type;location;lat;lon;timestamp;temperature;humidity
1377;DHT22;682;52.502;13.488;2023-04-12T03:06:21;3.70;1.00
1377;DHT22;682;52.502;13.488;2023-04-12T03:08:48;3.80;1.00
1377;DHT22;682;52.502;13.488;2023-04-12T03:11:15;3.80;1.00
1377;DHT22;682;52.502;13.488;2023-04-12T03:13:42;3.70;1.00
1377;DHT22;682;52.502;13.488;2023-04-12T03:16:20;3.60;1.00
1377;DHT22;682;52.502;13.488;2023-04-12T03:18:48;3.60;1.00
1377;DHT22;682;52.502;13.488;2023-04-12T03:21:20;3.50;1.00
1377;DHT22;682;52.502;13.488;2023-04-12T03:23:47;3.50;1.00
1377;DHT22;682;52.502;13.488;2023-04-12T03:26:17;3.50;1.00
1377;DHT22;682;52.502;13.488;2023-04-12T03:28:46;3.60;1.00
1377;DHT22;682;52.502;13.488;2023-04-12T03:31:20;3.60;1.00
1377;DHT22;682;52.502;13.488;2023-04-12T03:33:51;3.60;1.00
1377;DHT22;682;52.502;13.488;2023-04-12T03:36:20;3.60;1.00
1377;DHT22;682;52.502;13.488;2023-04-12T03:38:49;3.60;1.00
1377;DHT22;682;52.502;13.488;2023-04-12T03:41:16;3.60;1.00
1377;DHT22;682;52.502;13.488;2023-04-12T03:43:44;3.70;1.00
1377;DHT22;682;52.502;13.488;2023-04-12T03:46:12;3.60;1.00
1377;DHT22;682;52.502;13.488;2023-04-12T03:48:41;3.50;1.00
1377;DHT22;682;52.502;13.488;2023-04-12T03:51:12;3.50;1.00
1377;DHT22;682;52.502;13.488;2023-04-12T03:53:46;3.50;1.00
1377;DHT22;682;52.502;13.488;2023-04-12T03:56:16;3.50;1.00
1377;DHT22;682;52.502;13.488;2023-04-12T03:58:46;3.40;1.00
1377;DHT22;682;52.502;13.488;2023-04-12T04:01:14;3.30;1.00
1377;DHT22;682;52.502;13.488;2023-04-12T04:03:42;3.30;1.00
1377;DHT22;682;52.502;13.488;2023-04-12T04:06:11;3.20;1.00
1377;DHT22;682;52.502;13.488;2023-04-12T04:08:39;3.20;1.00
1377;DHT22;682;52.502;13.488;2023-04-12T04:11:08;3.10;1.00
1377;DHT22;682;52.502;13.488;2023-04-12T04:13:36;3.10;1.00
1377;DHT22;682;52.502;13.488;2023-04-12T04:16:05;3.10;1.00
1377;DHT22;682;52.502;13.488;2023-04-12T04:18:34;3.10;1.00
1377;DHT22;682;52.502;13.488;2023-04-12T04:21:07;3.20;1.00
1377;DHT22;682;52.502;13.488;2023-04-12T04:23:35;3.20;1.00
1377;DHT22;682;52.502;13.488;2023-04-12T04:26:05;3.20;1.00
1377;DHT22;682;52.502;13.488;2023-04-12T04:28:37;3.10;1.00
1377;DHT22;682;52.502;13.488;2023-04-12T04:31:12;3.20;1.00
1377;DHT22;682;52.502;13.488;2023-04-12T04:33:41;3.10;1.00
1377;DHT22;682;52.502;13.488;2023-04-12T04:36:10;3.10;1.00
1377;DHT22;682;52.502;13.488;2023-04-12T04:38:37;3.10;1.00
1377;DHT22;682;52.502;13.488;2023-04-12T04:41:09;3.10;1.00
1377;DHT22;682;52.502;13.488;2023-04-12T04:43:40;3.10;1.00
1377;DHT22;682;52.502;13.488;2023-04-12T04:46:11;3.10;1.00
1377;DHT22;682;52.502;13.488;2023-04-12T04:48:41;3.20;1.00
1377;DHT22;682;52.502;13.488;2023-04-12T04:51:11;3.30;1.00
1377;DHT22;682;52.502;13.488;2023-04-12T04:53:39;3.20;1.00
1377;DHT22;682;52.502;13.488;2023-04-12T04:56:09;3.20;1.00
1377;DHT22;682;52.502;13.488;2023-04-12T04:58:40;3.20;1.00
1377;DHT22;682;52.502;13.488;2023-04-12T05:01:07;3.30;1.00
1377;DHT22;682;52.502;13.488;2023-04-12T05:03:38;3.30;1.00
1377;DHT22;682;52.502;13.488;2023-04-12T05:06:07;3.30;1.00
1377;DHT22;682;52.502;13.488;2023-04-12T05:08:36;3.30;1.00
1377;DHT22;682;52.502;13.488;2023-04-12T05:11:03;3.40;1.00
1377;DHT22;682;52.502;13.488;2023-04-12T05:13:31;3.50;1.00
1377;DHT22;682;52.502;13.488;2023-04-12T05:16:05;3.50;1.00
1377;DHT22;682;52.502;13.488;2023-04-12T05:18:36;3.50;1.00
1377;DHT22;682;52.502;13.488;2023-04-12T05:21:05;3.50;1.00
1377;DHT22;682;52.502;13.488;2023-04-12T05:23:35;3.50;1.00
1377;DHT22;682;52.502;13.488;2023-04-12T05:26:03;3.50;1.00
1377;DHT22;682;52.502;13.488;2023-04-12T05:28:31;3.60;1.00
1377;DHT22;682;52.502;13.488;2023-04-12T05:31:03;3.60;1.00
1377;DHT22;682;52.502;13.488;2023-04-12T05:33:34;3.70;1.00
1377;DHT22;682;52.502;13.488;2023-04-12T05:36:06;3.70;1.00
1377;DHT22;682;52.502;13.488;2023-04-12T05:38:33;3.80;1.00
1377;DHT22;682;52.502;13.488;2023-04-12T05:41:00;3.80;1.00
1377;DHT22;682;52.502;13.488;2023-04-12T05:43:31;3.90;1.00
1377;DHT22;682;52.502;13.488;2023-04-12T05:45:59;3.90;1.00
1377;DHT22;682;52.502;13.488;2023-04-12T05:48:30;4.00;1.00
1377;DHT22;682;52.502;13.488;2023-04-12T05:51:03;4.10;1.00
1377;DHT22;682;52.502;13.488;2023-04-12T05:53:31;4.20;1.00
1377;DHT22;682;52.502;13.488;2023-04-12T05:55:59;4.30;1.00
1377;DHT22;682;52.502;13.488;2023-04-12T05:58:27;4.50;1.00
1377;DHT22;682;52.502;13.488;2023-04-12T06:00:58;4.60;1.00
1377;DHT22;682;52.502;13.488;2023-04-12T06:03:44;4.70;1.00
1377;DHT22;682;52.502;13.488;2023-04-12T06:06:13;4.90;1.00
1377;DHT22;682;52.502;13.488;2023-04-12T06:08:45;5.10;1.00
1377;DHT22;682;52.502;13.488;2023-04-12T06:11:19;5.10;1.00
1377;DHT22;682;52.502;13.488;2023-04-12T06:13:46;5.30;1.00
1377;DHT22;682;52.502;13.488;2023-04-12T06:16:14;5.50;1.00
1377;DHT22;682;52.502;13.488;2023-04-12T06:18:42;5.50;1.00
1377;DHT22;682;52.502;13.488;2023-04-12T06:21:14;5.50;1.00
1377;DHT22;682;52.502;13.488;2023-04-12T06:23:41;5.60;1.00
1377;DHT22;682;52.502;13.488;2023-04-12T06:26:08;5.60;1.00
1377;DHT22;682;52.502;13.488;2023-04-12T06:28:36;5.80;1.00
1377;DHT22;682;52.502;13.488;2023-04-12T06:31:03;6.00;1.00
1377;DHT22;682;52.502;13.488;2023-04-12T06:33:30;6.20;1.00
1377;DHT22;682;52.502;13.488;2023-04-12T06:35:58;6.30;1.00
1377;DHT22;682;52.502;13.488;2023-04-12T06:38:26;6.20;1.00
1377;DHT22;682;52.502;13.488;2023-04-12T06:40:53;6.30;1.00
1377;DHT22;682;52.502;13.488;2023-04-12T06:43:24;6.40;1.00
1377;DHT22;682;52.502;13.488;2023-04-12T06:45:52;6.50;1.00
1377;DHT22;682;52.502;13.488;2023-04-12T06:48:21;6.70;1.00
1377;DHT22;682;52.502;13.488;2023-04-12T06:50:48;6.80;1.00
1377;DHT22;682;52.502;13.488;2023-04-12T06:53:15;6.90;1.00
1377;DHT22;682;52.502;13.488;2023-04-12T06:55:44;7.10;1.00
1377;DHT22;682;52.502;13.488;2023-04-12T06:58:11;7.20;1.00
1377;DHT22;682;52.502;13.488;2023-04-12T07:00:38;7.40;1.00
1377;DHT22;682;52.502;13.488;2023-04-12T07:03:08;7.40;1.00
1377;DHT22;682;52.502;13.488;2023-04-12T07:05:37;7.50;1.00
1377;DHT22;682;52.502;13.488;2023-04-12T07:08:07;7.70;1.00
1377;DHT22;682;52.502;13.488;2023-04-12T07:10:35;7.80;1.00
1377;DHT22;682;52.502;13.488;2023-04-12T07:13:04;8.00;1.00
1377;DHT22;682;52.502;13.488;2023-04-12T07:15:32;8.20;1.00
1377;DHT22;682;52.502;13.488;2023-04-12T07:17:59;8.40;1.00
1377;DHT22;682;52.502;13.488;2023-04-12T07:20:26;8.60;1.00
1377;DHT22;682;52.502;13.488;2023-04-12T07:22:53;8.80;1.00
1377;DHT22;682;52.502;13.488;2023-04-12T07:25:24;8.90;1.00
1377;DHT22;682;52.502;13.488;2023-04-12T07:27:51;8.90;1.00
1377;DHT22;682;52.502;13.488;2023-04-12T07:30:20;9.10;1.00
1377;DHT22;682;52.502;13.488;2023-04-12T07:32:48;9.30;1.00
1377;DHT22;682;52.502;13.488;2023-04-12T07:35:16;9.50;1.00
1377;DHT22;682;52.502;13.488;2023-04-12T07:37:43;9.50;1.00
1377;DHT22;682;52.502;13.488;2023-04-12T07:40:11;9.60;1.00
1377;DHT22;682;52.502;13.488;2023-04-12T07:42:38;9.80;1.00
1377;DHT22;682;52.502;13.488;2023-04-12T07:45:09;9.90;1.00
1377;DHT22;682;52.502;13.488;2023-04-12T07:47:45;10.20;1.00
1377;DHT22;682;52.502;13.488;2023-04-12T07:50:15;10.40;1.00
1377;DHT22;682;52.502;13.488;2023-04-12T07:52:46;10.60;1.00
1377;DHT22;682;52.502;13.488;2023-04-12T07:55:14;10.80;1.00
1377;DHT22;682;52.502;13.488;2023-04-12T07:57:42;10.70;1.00
1377;DHT22;682;52.502;13.488;2023-04-12T08:00:10;10.80;1.00
1377;DHT22;682;52.502;13.488;2023-04-12T08:02:37;10.80;1.00
1377;DHT22;682;52.502;13.488;2023-04-12T08:05:09;10.90;1.00
1377;DHT22;682;52.502;13.488;2023-04-12T08:07:36;11.00;1.00
1377;DHT22;682;52.502;13.488;2023-04-12T08:10:04;11.10;1.00
1377;DHT22;682;52.502;13.488;2023-04-12T08:12:33;11.20;1.00
1377;DHT22;682;52.502;13.488;2023-04-12T08:15:03;11.20;1.00
1377;DHT22;682;52.502;13.488;2023-04-12T08:17:38;11.30;1.00
1377;DHT22;682;52.502;13.488;2023-04-12T08:20:15;11.50;1.00
1377;DHT22;682;52.502;13.488;2023-04-12T08:22:46;11.70;1.00
1377;DHT22;682;52.502;13.488;2023-04-12T08:25:14;11.80;1.00
1377;DHT22;682;52.502;13.488;2023-04-12T08:27:42;12.00;1.00
1377;DHT22;682;52.502;13.488;2023-04-12T08:30:10;12.00;1.00
1377;DHT22;682;52.502;13.488;2023-04-12T08:32:44;11.90;1.00
1377;DHT22;682;52.502;13.488;2023-04-12T08:35:13;12.10;1.00
1377;DHT22;682;52.502;13.488;2023-04-12T08:37:41;12.20;1.00
1377;DHT22;682;52.502;13.488;2023-04-12T08:40:09;12.20;1.00
1377;DHT22;682;52.502;13.488;2023-04-12T08:42:37;12.30;1.00
1377;DHT22;682;52.502;13.488;2023-04-12T08:45:06;12.50;1.00
1377;DHT22;682;52.502;13.488;2023-04-12T08:47:37;12.60;1.00
1377;DHT22;682;52.502;13.488;2023-04-12T08:50:05;12.70;1.00
1377;DHT22;682;52.502;13.488;2023-04-12T08:52:36;12.90;1.00
1377;DHT22;682;52.502;13.488;2023-04-12T08:55:04;13.10;1.00
1377;DHT22;682;52.502;13.488;2023-04-12T08:57:32;13.20;1.00
1377;DHT22;682;52.502;13.488;2023-04-12T09:00:02;13.20;1.00
1377;DHT22;682;52.502;13.488;2023-04-12T09:02:29;13.30;1.00
1377;DHT22;682;52.502;13.488;2023-04-12T09:04:56;13.40;1.00
1377;DHT22;682;52.502;13.488;2023-04-12T09:07:24;13.60;1.00
1377;DHT22;682;52.502;13.488;2023-04-12T09:09:57;13.70;1.00
1377;DHT22;682;52.502;13.488;2023-04-12T09:12:24;14.00;1.00
1377;DHT22;682;52.502;13.488;2023-04-12T09:15:06;14.00;1.00
1377;DHT22;682;52.502;13.488;2023-04-12T09:17:34;14.10;1.00
1377;DHT22;682;52.502;13.488;2023-04-12T09:20:22;14.40;1.00
1377;DHT22;682;52.502;13.488;2023-04-12T09:22:50;14.40;1.00
1377;DHT22;682;52.502;13.488;2023-04-12T09:25:36;14.80;1.00
1377;DHT22;682;52.502;13.488;2023-04-12T09:28:16;15.40;1.00
1377;DHT22;682;52.502;13.488;2023-04-12T09:30:44;16.30;1.00
1377;DHT22;682;52.502;13.488;2023-04-12T09:33:16;17.80;1.00
1377;DHT22;682;52.502;13.488;2023-04-12T09:35:44;18.60;1.00
1377;DHT22;682;52.502;13.488;2023-04-12T09:38:11;18.60;1.00
1377;DHT22;682;52.502;13.488;2023-04-12T09:40:40;19.40;1.00
1377;DHT22;682;52.502;13.488;2023-04-12T09:43:07;19.90;1.00
1377;DHT22;682;52.502;13.488;2023-04-12T09:45:35;20.70;1.00
1377;DHT22;682;52.502;13.488;2023-04-12T09:48:06;21.00;1.00
1377;DHT22;682;52.502;13.488;2023-04-12T09:50:33;21.50;1.00
1377;DHT22;682;52.502;13.488;2023-04-12T09:53:01;21.30;1.00
1377;DHT22;682;52.502;13.488;2023-04-12T09:55:30;21.40;1.00
1377;DHT22;682;52.502;13.488;2023-04-12T09:58:01;21.20;1.00
1377;DHT22;682;52.502;13.488;2023-04-12T10:00:35;21.80;1.00
1377;DHT22;682;52.502;13.488;2023-04-12T10:03:02;22.30;1.00
1377;DHT22;682;52.502;13.488;2023-04-12T10:05:31;23.30;1.00
1377;DHT22;682;52.502;13.488;2023-04-12T10:07:59;23.10;1.00
1377;DHT22;682;52.502;13.488;2023-04-12T10:10:27;22.30;1.00
1377;DHT22;682;52.502;13.488;2023-04-12T10:12:55;22.30;1.00
1377;DHT22;682;52.502;13.488;2023-04-12T10:15:30;23.20;1.00
1377;DHT22;682;52.502;13.488;2023-04-12T10:17:58;23.00;1.00
1377;DHT22;682;52.502;13.488;2023-04-12T10:20:26;22.60;1.00
1377;DHT22;682;52.502;13.488;2023-04-12T10:22:53;23.20;1.00
1377;DHT22;682;52.502;13.488;2023-04-12T10:25:22;23.60;1.00
1377;DHT22;682;52.502;13.488;2023-04-12T10:27:50;24.30;1.00
1377;DHT22;682;52.502;13.488;2023-04-12T10:30:22;24.80;1.00
1377;DHT22;682;52.502;13.488;2023-04-12T10:33:10;24.40;1.00
1377;DHT22;682;52.502;13.488;2023-04-12T10:35:55;24.50;1.00
1377;DHT22;682;52.502;13.488;2023-04-12T10:38:25;24.20;1.00
1377;DHT22;682;52.502;13.488;2023-04-12T10:41:11;24.70;1.00
1377;DHT22;682;52.502;13.488;2023-04-12T10:43:39;25.90;1.00
1377;DHT22;682;52.502;13.488;2023-04-12T10:46:06;25.40;1.00
1377;DHT22;682;52.502;13.488;2023-04-12T10:48:36;25.50;1.00
1377;DHT22;682;52.502;13.488;2023-04-12T10:51:15;25.70;1.00
1377;DHT22;682;52.502;13.488;2023-04-12T10:53:45;26.20;1.00
1377;DHT22;682;52.502;13.488;2023-04-12T10:56:33;25.20;1.00
1377;DHT22;682;52.502;13.488;2023-04-12T10:59:04;25.90;1.00
1377;DHT22;682;52.502;13.488;2023-04-12T11:01:32;24.50;1.00
1377;DHT22;682;52.502;13.488;2023-04-12T11:04:09;23.80;1.00
1377;DHT22;682;52.502;13.488;2023-04-12T11:06:42;24.40;1.00
1377;DHT22;682;52.502;13.488;2023-04-12T11:09:23;25.30;1.00
1377;DHT22;682;52.502;13.488;2023-04-12T11:11:54;25.70;1.00
1377;DHT22;682;52.502;13.488;2023-04-12T11:14:28;26.00;1.00
1377;DHT22;682;52.502;13.488;2023-04-12T11:17:24;26.30;1.00
1377;DHT22;682;52.502;13.488;2023-04-12T11:19:55;26.30;1.00
1377;DHT22;682;52.502;13.488;2023-04-12T11:22:24;27.20;1.00
1377;DHT22;682;52.502;13.488;2023-04-12T11:24:53;26.20;1.00
1377;DHT22;682;52.502;13.488;2023-04-12T11:27:21;25.90;1.00
1377;DHT22;682;52.502;13.488;2023-04-12T11:29:50;27.10;1.00
1377;DHT22;682;52.502;13.488;2023-04-12T11:32:20;27.50;1.00
1377;DHT22;682;52.502;13.488;2023-04-12T11:34:47;27.60;1.00
1377;DHT22;682;52.502;13.488;2023-04-12T11:37:18;28.60;1.00
1377;DHT22;682;52.502;13.488;2023-04-12T11:39:48;29.40;1.00
1377;DHT22;682;52.502;13.488;2023-04-12T11:42:17;28.60;1.00
1377;DHT22;682;52.502;13.488;2023-04-12T11:44:45;27.80;1.00
1377;DHT22;682;52.502;13.488;2023-04-12T11:47:17;28.90;1.00
1377;DHT22;682;52.502;13.488;2023-04-12T11:49:45;29.80;1.00
1377;DHT22;682;52.502;13.488;2023-04-12T11:52:13;30.00;1.00
1377;DHT22;682;52.502;13.488;2023-04-12T11:54:43;29.10;1.00
1377;DHT22;682;52.502;13.488;2023-04-12T11:57:11;29.10;1.00
1377;DHT22;682;52.502;13.488;2023-04-12T11:59:39;26.60;1.00
1377;DHT22;682;52.502;13.488;2023-04-12T12:02:07;26.40;1.00
1377;DHT22;682;52.502;13.488;2023-04-12T12:04:35;25.70;1.00
1377;DHT22;682;52.502;13.488;2023-04-12T12:07:03;25.80;1.00
1377;DHT22;682;52.502;13.488;2023-04-12T12:09:31;24.50;1.00
1377;DHT22;682;52.502;13.488;2023-04-12T12:12:01;22.50;1.00
1377;DHT22;682;52.502;13.488;2023-04-12T12:14:28;21.30;1.00
1377;DHT22;682;52.502;13.488;2023-04-12T12:16:56;20.70;1.00
1377;DHT22;682;52.502;13.488;2023-04-12T12:19:28;20.80;1.00
1377;DHT22;682;52.502;13.488;2023-04-12T12:22:10;20.90;1.00
1377;DHT22;682;52.502;13.488;2023-04-12T12:24:38;20.40;1.00
1377;DHT22;682;52.502;13.488;2023-04-12T12:27:06;20.20;1.00
1377;DHT22;682;52.502;13.488;2023-04-12T12:29:36;19.70;1.00
1377;DHT22;682;52.502;13.488;2023-04-12T12:32:09;18.90;1.00
1377;DHT22;682;52.502;13.488;2023-04-12T12:34:37;18.80;1.00
1377;DHT22;682;52.502;13.488;2023-04-12T12:37:07;18.90;1.00
1377;DHT22;682;52.502;13.488;2023-04-12T12:39:35;19.20;1.00
1377;DHT22;682;52.502;13.488;2023-04-12T12:42:11;19.50;1.00
1377;DHT22;682;52.502;13.488;2023-04-12T12:44:38;19.30;1.00
1377;DHT22;682;52.502;13.488;2023-04-12T12:47:05;19.60;1.00
1377;DHT22;682;52.502;13.488;2023-04-12T12:49:32;20.10;1.00
1377;DHT22;682;52.502;13.488;2023-04-12T12:51:59;20.20;1.00
1377;DHT22;682;52.502;13.488;2023-04-12T12:54:26;20.10;1.00
1377;DHT22;682;52.502;13.488;2023-04-12T12:56:53;19.40;1.00
1377;DHT22;682;52.502;13.488;2023-04-12T12:59:24;18.80;1.00
1377;DHT22;682;52.502;13.488;2023-04-12T13:01:50;18.30;1.00
1377;DHT22;682;52.502;13.488;2023-04-12T13:04:18;18.20;1.00
1377;DHT22;682;52.502;13.488;2023-04-12T13:06:45;18.10;1.00
1377;DHT22;682;52.502;13.488;2023-04-12T13:09:12;18.30;1.00
1377;DHT22;682;52.502;13.488;2023-04-12T13:11:39;18.30;1.00
1377;DHT22;682;52.502;13.488;2023-04-12T13:14:06;18.30;1.00
1377;DHT22;682;52.502;13.488;2023-04-12T13:16:34;18.60;1.00
1377;DHT22;682;52.502;13.488;2023-04-12T13:19:01;18.60;1.00
1377;DHT22;682;52.502;13.488;2023-04-12T13:21:28;18.70;1.00
1377;DHT22;682;52.502;13.488;2023-04-12T13:23:56;18.90;1.00
1377;DHT22;682;52.502;13.488;2023-04-12T13:26:23;19.20;1.00
1377;DHT22;682;52.502;13.488;2023-04-12T13:28:50;19.40;1.00
1377;DHT22;682;52.502;13.488;2023-04-12T13:31:18;19.50;1.00
1377;DHT22;682;52.502;13.488;2023-04-12T13:33:47;19.50;1.00
1377;DHT22;682;52.502;13.488;2023-04-12T13:36:14;19.60;1.00
1377;DHT22;682;52.502;13.488;2023-04-12T13:38:41;19.30;1.00
1377;DHT22;682;52.502;13.488;2023-04-12T13:41:08;19.20;1.00
1377;DHT22;682;52.502;13.488;2023-04-12T13:43:35;18.90;1.00
1377;DHT22;682;52.502;13.488;2023-04-12T13:46:03;19.10;1.00
1377;DHT22;682;52.502;13.488;2023-04-12T13:48:31;19.50;1.00
1377;DHT22;682;52.502;13.488;2023-04-12T13:51:00;19.50;1.00
1377;DHT22;682;52.502;13.488;2023-04-12T13:53:28;19.40;1.00
1377;DHT22;682;52.502;13.488;2023-04-12T13:55:55;18.90;1.00
1377;DHT22;682;52.502;13.488;2023-04-12T13:58:27;18.60;1.00
1377;DHT22;682;52.502;13.488;2023-04-12T14:00:54;18.00;1.00
1377;DHT22;682;52.502;13.488;2023-04-12T14:03:25;18.40;1.00
1377;DHT22;682;52.502;13.488;2023-04-12T14:05:53;18.30;1.00
1377;DHT22;682;52.502;13.488;2023-04-12T14:08:22;18.30;1.00
1377;DHT22;682;52.502;13.488;2023-04-12T14:10:49;17.70;1.00
1377;DHT22;682;52.502;13.488;2023-04-12T14:13:16;17.00;1.00
1377;DHT22;682;52.502;13.488;2023-04-12T14:15:43;16.90;1.00
1377;DHT22;682;52.502;13.488;2023-04-12T14:18:10;16.70;1.00
1377;DHT22;682;52.502;13.488;2023-04-12T14:20:37;16.70;1.00
1377;DHT22;682;52.502;13.488;2023-04-12T14:23:04;16.50;1.00
1377;DHT22;682;52.502;13.488;2023-04-12T14:25:36;16.30;1.00
1377;DHT22;682;52.502;13.488;2023-04-12T14:28:05;16.10;1.00
1377;DHT22;682;52.502;13.488;2023-04-12T14:30:33;16.20;1.00
1377;DHT22;682;52.502;13.488;2023-04-12T14:33:00;16.10;1.00
1377;DHT22;682;52.502;13.488;2023-04-12T14:35:27;16.00;1.00
1377;DHT22;682;52.502;13.488;2023-04-12T14:37:54;15.90;1.00
1377;DHT22;682;52.502;13.488;2023-04-12T14:40:21;16.00;1.00
1377;DHT22;682;52.502;13.488;2023-04-12T14:42:51;15.90;1.00
1377;DHT22;682;52.502;13.488;2023-04-12T14:45:21;15.70;1.00
1377;DHT22;682;52.502;13.488;2023-04-12T14:47:54;15.50;1.00
1377;DHT22;682;52.502;13.488;2023-04-12T14:50:25;15.50;1.00
1377;DHT22;682;52.502;13.488;2023-04-12T14:52:52;15.50;1.00
1377;DHT22;682;52.502;13.488;2023-04-12T14:55:20;15.40;1.00
1377;DHT22;682;52.502;13.488;2023-04-12T14:57:47;15.30;1.00
1377;DHT22;682;52.502;13.488;2023-04-12T15:00:16;15.20;1.00
1377;DHT22;682;52.502;13.488;2023-04-12T15:02:47;15.20;1.00
1377;DHT22;682;52.502;13.488;2023-04-12T15:05:15;15.20;1.00
1377;DHT22;682;52.502;13.488;2023-04-12T15:07:41;15.30;1.00
1377;DHT22;682;52.502;13.488;2023-04-12T15:10:10;15.20;1.00
1377;DHT22;682;52.502;13.488;2023-04-12T15:12:38;15.10;1.00
1377;DHT22;682;52.502;13.488;2023-04-12T15:15:06;15.00;1.00
1377;DHT22;682;52.502;13.488;2023-04-12T15:17:37;14.80;1.00
1377;DHT22;682;52.502;13.488;2023-04-12T15:20:05;14.90;1.00
1377;DHT22;682;52.502;13.488;2023-04-12T15:22:36;14.80;1.00
1377;DHT22;682;52.502;13.488;2023-04-12T15:25:03;14.90;1.00
1377;DHT22;682;52.502;13.488;2023-04-12T15:27:33;14.80;1.00
1377;DHT22;682;52.502;13.488;2023-04-12T15:30:01;14.80;1.00
1377;DHT22;682;52.502;13.488;2023-04-12T15:32:28;14.70;1.00
1377;DHT22;682;52.502;13.488;2023-04-12T15:34:59;14.50;1.00
1377;DHT22;682;52.502;13.488;2023-04-12T15:37:26;14.10;1.00
1377;DHT22;682;52.502;13.488;2023-04-12T15:39:54;14.00;1.00
1377;DHT22;682;52.502;13.488;2023-04-12T15:42:21;13.70;1.00
1377;DHT22;682;52.502;13.488;2023-04-12T15:44:48;13.60;1.00
1377;DHT22;682;52.502;13.488;2023-04-12T15:47:15;13.40;1.00
1377;DHT22;682;52.502;13.488;2023-04-12T15:49:42;13.30;1.00
1377;DHT22;682;52.502;13.488;2023-04-12T15:52:11;13.20;1.00
1377;DHT22;682;52.502;13.488;2023-04-12T15:54:37;13.20;1.00
1377;DHT22;682;52.502;13.488;2023-04-12T15:57:07;13.20;1.00
1377;DHT22;682;52.502;13.488;2023-04-12T15:59:36;13.10;1.00
1377;DHT22;682;52.502;13.488;2023-04-12T16:02:04;13.10;1.00
1377;DHT22;682;52.502;13.488;2023-04-12T16:04:34;13.00;1.00
1377;DHT22;682;52.502;13.488;2023-04-12T16:07:01;12.80;1.00
1377;DHT22;682;52.502;13.488;2023-04-12T16:09:30;12.50;1.00
1377;DHT22;682;52.502;13.488;2023-04-12T16:11:59;12.30;1.00
1377;DHT22;682;52.502;13.488;2023-04-12T16:14:26;12.10;1.00
1377;DHT22;682;52.502;13.488;2023-04-12T16:16:53;12.00;1.00
1377;DHT22;682;52.502;13.488;2023-04-12T16:19:20;11.80;1.00
1377;DHT22;682;52.502;13.488;2023-04-12T16:21:47;11.70;1.00
1377;DHT22;682;52.502;13.488;2023-04-12T16:24:15;11.60;1.00
1377;DHT22;682;52.502;13.488;2023-04-12T16:26:43;11.50;1.00
1377;DHT22;682;52.502;13.488;2023-04-12T16:29:11;11.60;1.00
1377;DHT22;682;52.502;13.488;2023-04-12T16:31:38;11.50;1.00
1377;DHT22;682;52.502;13.488;2023-04-12T16:34:06;11.40;1.00
1377;DHT22;682;52.502;13.488;2023-04-12T16:36:34;11.40;1.00
1377;DHT22;682;52.502;13.488;2023-04-12T16:39:02;11.40;1.00
1377;DHT22;682;52.502;13.488;2023-04-12T16:41:32;11.40;1.00
1377;DHT22;682;52.502;13.488;2023-04-12T16:44:01;11.40;1.00
1377;DHT22;682;52.502;13.488;2023-04-12T16:46:29;11.40;1.00
1377;DHT22;682;52.502;13.488;2023-04-12T16:48:56;11.40;1.00
1377;DHT22;682;52.502;13.488;2023-04-12T16:51:24;11.40;1.00
1377;DHT22;682;52.502;13.488;2023-04-12T16:53:51;11.50;1.00
1377;DHT22;682;52.502;13.488;2023-04-12T16:56:21;11.60;1.00
1377;DHT22;682;52.502;13.488;2023-04-12T16:58:49;11.60;1.00
1377;DHT22;682;52.502;13.488;2023-04-12T17:01:17;11.70;1.00
1377;DHT22;682;52.502;13.488;2023-04-12T17:03:45;11.90;1.00
1377;DHT22;682;52.502;13.488;2023-04-12T17:06:13;11.90;1.00
1377;DHT22;682;52.502;13.488;2023-04-12T17:08:40;12.00;1.00
1377;DHT22;682;52.502;13.488;2023-04-12T17:11:08;12.10;1.00
1377;DHT22;682;52.502;13.488;2023-04-12T17:13:36;12.10;1.00
1377;DHT22;682;52.502;13.488;2023-04-12T17:16:03;12.20;1.00
1377;DHT22;682;52.502;13.488;2023-04-12T17:18:32;12.20;1.00
1377;DHT22;682;52.502;13.488;2023-04-12T17:21:01;12.20;1.00
1377;DHT22;682;52.502;13.488;2023-04-12T17:23:28;12.20;1.00
1377;DHT22;682;52.502;13.488;2023-04-12T17:25:57;12.20;1.00
1377;DHT22;682;52.502;13.488;2023-04-12T17:28:26;12.20;1.00
1377;DHT22;682;52.502;13.488;2023-04-12T17:30:54;12.10;1.00
1377;DHT22;682;52.502;13.488;2023-04-12T17:33:22;12.10;1.00
1377;DHT22;682;52.502;13.488;2023-04-12T17:35:51;12.10;1.00
1377;DHT22;682;52.502;13.488;2023-04-12T17:38:19;12.20;1.00
1377;DHT22;682;52.502;13.488;2023-04-12T17:40:46;12.30;1.00
1377;DHT22;682;52.502;13.488;2023-04-12T17:43:12;12.30;1.00
1377;DHT22;682;52.502;13.488;2023-04-12T17:45:40;12.10;1.00
1377;DHT22;682;52.502;13.488;2023-04-12T17:48:09;12.10;1.00
1377;DHT22;682;52.502;13.488;2023-04-12T17:50:39;12.20;1.00
1377;DHT22;682;52.502;13.488;2023-04-12T17:53:08;12.20;1.00
1377;DHT22;682;52.502;13.488;2023-04-12T17:55:35;12.30;1.00
1377;DHT22;682;52.502;13.488;2023-04-12T17:58:03;12.30;1.00
1377;DHT22;682;52.502;13.488;2023-04-12T18:00:31;12.30;1.00
1377;DHT22;682;52.502;13.488;2023-04-12T18:02:57;12.20;1.00
1377;DHT22;682;52.502;13.488;2023-04-12T18:05:25;12.20;1.00
1377;DHT22;682;52.502;13.488;2023-04-12T18:07:52;12.20;1.00
1377;DHT22;682;52.502;13.488;2023-04-12T18:10:22;12.20;1.00
1377;DHT22;682;52.502;13.488;2023-04-12T18:12:51;12.20;1.00
1377;DHT22;682;52.502;13.488;2023-04-12T18:15:18;12.30;1.00
1377;DHT22;682;52.502;13.488;2023-04-12T18:17:46;12.20;1.00
1377;DHT22;682;52.502;13.488;2023-04-12T18:20:13;12.20;1.00
1377;DHT22;682;52.502;13.488;2023-04-12T18:22:41;12.30;1.00
1377;DHT22;682;52.502;13.488;2023-04-12T18:25:08;12.20;1.00
1377;DHT22;682;52.502;13.488;2023-04-12T18:27:37;12.20;1.00
1377;DHT22;682;52.502;13.488;2023-04-12T18:30:06;12.10;1.00
1377;DHT22;682;52.502;13.488;2023-04-12T18:32:33;12.10;1.00
1377;DHT22;682;52.502;13.488;2023-04-12T18:35:00;12.10;1.00
1377;DHT22;682;52.502;13.488;2023-04-12T18:37:29;12.00;1.00
1377;DHT22;682;52.502;13.488;2023-04-12T18:39:56;11.90;1.00
1377;DHT22;682;52.502;13.488;2023-04-12T18:42:23;11.90;1.00
1377;DHT22;682;52.502;13.488;2023-04-12T18:44:52;11.90;1.00
1377;DHT22;682;52.502;13.488;2023-04-12T18:47:20;11.90;1.00
1377;DHT22;682;52.502;13.488;2023-04-12T18:49:48;12.00;1.00
1377;DHT22;682;52.502;13.488;2023-04-12T18:52:15;12.00;1.00
1377;DHT22;682;52.502;13.488;2023-04-12T18:54:42;11.90;1.00
1377;DHT22;682;52.502;13.488;2023-04-12T18:57:09;11.80;1.00
1377;DHT22;682;52.502;13.488;2023-04-12T18:59:36;11.80;1.00
1377;DHT22;682;52.502;13.488;2023-04-12T19:02:04;11.90;1.00
1377;DHT22;682;52.502;13.488;2023-04-12T19:04:32;11.90;1.00
1377;DHT22;682;52.502;13.488;2023-04-12T19:07:00;11.90;1.00
1377;DHT22;682;52.502;13.488;2023-04-12T19:09:27;11.80;1.00
1377;DHT22;682;52.502;13.488;2023-04-12T19:11:54;11.70;1.00
1377;DHT22;682;52.502;13.488;2023-04-12T19:14:21;11.60;1.00
1377;DHT22;682;52.502;13.488;2023-04-12T19:16:49;11.50;1.00
1377;DHT22;682;52.502;13.488;2023-04-12T19:19:18;11.40;1.00
1377;DHT22;682;52.502;13.488;2023-04-12T19:21:45;11.50;1.00
1377;DHT22;682;52.502;13.488;2023-04-12T19:24:12;11.40;1.00
1377;DHT22;682;52.502;13.488;2023-04-12T19:26:46;11.40;1.00
1377;DHT22;682;52.502;13.488;2023-04-12T19:29:14;11.40;1.00
1377;DHT22;682;52.502;13.488;2023-04-12T19:31:41;11.40;1.00
1377;DHT22;682;52.502;13.488;2023-04-12T19:34:12;11.40;1.00
1377;DHT22;682;52.502;13.488;2023-04-12T19:36:41;11.40;1.00
1377;DHT22;682;52.502;13.488;2023-04-12T19:39:09;11.50;1.00